Time;durP1;ratioP1;P1;durP2;ratioP2;P2;SDS_P1;SDS_P2;PMS_P1;PMS_P2;Temp;Humidity;BMP_temperature;BMP_pressure;BME280_temperature;BME280_humidity;BME280_pressure;Samples;Min_cycle;Max_cycle;Signal;HPM_P1;HPM_P2
2023/03/17 00:00:18;;;;;;;17.23;10.25;;;;;;;10.79;48.13;100712.09;5070429;28;20404;-67
2023/03/17 00:02:47;;;;;;;19.67;10.90;;;;;;;10.83;48.21;100724.34;5072785;28;20395;-67
2023/03/17 00:05:22;;;;;;;17.20;9.98;;;;;;;10.78;48.77;100727.06;5062102;28;20040;-67
2023/03/17 00:07:49;;;;;;;14.65;7.47;;;;;;;10.80;48.79;100741.53;5071276;28;20031;-67
2023/03/17 00:10:24;;;;;;;10.73;6.88;;;;;;;10.78;48.92;100727.06;5067492;28;20080;-66
2023/03/17 00:12:52;;;;;;;15.48;9.68;;;;;;;10.74;49.00;100726.75;5070934;28;20073;-67
2023/03/17 00:15:19;;;;;;;12.05;6.72;;;;;;;10.75;48.54;100736.75;5051993;28;20036;-67
2023/03/17 00:17:46;;;;;;;11.68;7.80;;;;;;;10.73;48.51;100735.34;5056500;28;20036;-67
2023/03/17 00:20:17;;;;;;;11.90;8.23;;;;;;;10.73;48.85;100715.91;5069700;28;20036;-67
2023/03/17 00:22:43;;;;;;;12.18;7.70;;;;;;;10.74;49.03;100709.25;5071052;28;20024;-67
2023/03/17 00:25:26;;;;;;;10.27;6.38;;;;;;;10.73;49.31;100700.09;5071341;28;20036;-67
2023/03/17 00:27:52;;;;;;;8.20;6.25;;;;;;;10.70;48.90;100691.44;5060348;28;20133;-67
2023/03/17 00:30:18;;;;;;;6.28;4.20;;;;;;;10.67;48.87;100683.63;5066230;28;20043;-67
2023/03/17 00:32:44;;;;;;;5.78;3.65;;;;;;;10.70;48.72;100678.41;5071583;28;20049;-67
2023/03/17 00:35:37;;;;;;;6.43;3.70;;;;;;;10.72;49.23;100675.34;5071270;28;20101;-66
2023/03/17 00:38:02;;;;;;;;;;;;;;;10.82;49.01;100687.44;5069717;28;20040;-67
2023/03/17 00:40:29;;;;;;;5.93;3.65;;;;;;;10.67;49.49;100691.94;5071160;28;19917;-67
2023/03/17 00:42:56;;;;;;;6.10;4.10;;;;;;;10.61;49.50;100691.06;5071030;28;20035;-67
2023/03/17 00:45:24;;;;;;;8.55;3.83;;;;;;;10.60;49.48;100688.53;5068618;28;20059;-67
2023/03/17 00:47:52;;;;;;;5.88;3.90;;;;;;;10.59;49.31;100673.81;5070921;28;20024;-67
2023/03/17 00:50:24;;;;;;;5.47;3.67;;;;;;;10.56;49.61;100677.09;5071253;28;20107;-67
2023/03/17 00:52:51;;;;;;;5.05;3.42;;;;;;;10.56;49.91;100686.25;5071592;28;20032;-67
2023/03/17 00:55:18;;;;;;;5.25;3.70;;;;;;;10.52;49.59;100682.31;5070329;28;20033;-67
2023/03/17 00:57:44;;;;;;;4.97;3.72;;;;;;;10.52;49.90;100675.94;5070975;28;20107;-67
2023/03/17 01:00:20;;;;;;;5.20;3.63;;;;;;;10.51;50.02;100677.88;5071068;28;20578;-67
2023/03/17 01:02:46;;;;;;;5.88;3.80;;;;;;;10.50;50.07;100683.69;5063262;28;20048;-67
2023/03/17 01:05:12;;;;;;;5.57;3.67;;;;;;;10.47;49.90;100673.94;5070408;28;20051;-67
2023/03/17 01:07:39;;;;;;;6.80;3.72;;;;;;;10.51;50.02;100672.31;5050842;28;20543;-66
2023/03/17 01:10:12;;;;;;;6.53;3.63;;;;;;;10.44;50.38;100677.22;5050357;28;20032;-65
2023/03/17 01:12:38;;;;;;;5.18;3.78;;;;;;;10.42;50.35;100679.41;5050993;28;20392;-67
2023/03/17 01:15:04;;;;;;;6.90;3.50;;;;;;;10.38;51.05;100682.97;5050687;28;20049;-67
2023/03/17 01:17:32;;;;;;;5.22;3.60;;;;;;;10.36;50.55;100668.50;5066686;28;20055;-67
2023/03/17 01:19:58;;;;;;;5.93;3.58;;;;;;;10.37;51.30;100670.16;5068511;28;20028;-67
2023/03/17 01:22:24;;;;;;;4.90;3.60;;;;;;;10.32;51.27;100668.16;5070494;28;20035;-67
2023/03/17 01:24:50;;;;;;;6.18;3.83;;;;;;;10.31;51.68;100674.81;5070404;28;20032;-67
2023/03/17 01:27:17;;;;;;;7.38;3.50;;;;;;;10.31;51.27;100663.72;5068747;28;20070;-67
2023/03/17 01:29:43;;;;;;;4.38;3.53;;;;;;;10.26;51.40;100655.34;5070414;28;20372;-67
2023/03/17 01:32:09;;;;;;;7.10;3.63;;;;;;;10.21;51.77;100663.53;5070017;28;20055;-66
2023/03/17 01:34:34;;;;;;;5.13;3.78;;;;;;;10.20;52.11;100659.09;5068105;28;20028;-66
2023/03/17 01:37:00;;;;;;;7.18;3.35;;;;;;;10.16;52.09;100664.31;5068964;28;20040;-67
2023/03/17 01:39:26;;;;;;;5.47;3.60;;;;;;;10.14;51.53;100649.88;5070220;28;20375;-66
2023/03/17 01:41:55;;;;;;;4.38;3.25;;;;;;;10.13;51.78;100652.88;5070655;28;20025;-66
2023/03/17 01:44:22;;;;;;;5.20;3.40;;;;;;;10.08;51.80;100654.47;5070613;28;20058;-66
2023/03/17 01:46:48;;;;;;;8.15;3.80;;;;;;;10.11;51.12;100649.53;5067656;28;20029;-67
2023/03/17 01:49:37;;;;;;;5.38;3.53;;;;;;;10.11;51.49;100647.59;5073717;28;20394;-66
2023/03/17 01:52:10;;;;;;;6.32;4.05;;;;;;;10.08;51.52;100650.88;5072204;28;20108;-66
2023/03/17 01:54:44;;;;;;;4.95;3.45;;;;;;;10.08;52.13;100646.16;5073515;28;20074;-67
2023/03/17 01:57:22;;;;;;;6.13;3.92;;;;;;;10.06;51.32;100641.94;5074495;28;20035;-68
2023/03/17 01:59:58;;;;;;;6.35;3.50;;;;;;;10.06;51.61;100641.94;5072026;28;20039;-67
2023/03/17 02:02:29;;;;;;;4.90;3.38;;;;;;;10.03;51.61;100635.00;5054566;28;20032;-67
2023/03/17 02:04:56;;;;;;;6.90;3.50;;;;;;;10.01;51.66;100639.13;5056270;28;20025;-67
2023/03/17 02:07:23;;;;;;;7.38;3.70;;;;;;;10.01;51.86;100631.63;5069227;28;20464;-67
2023/03/17 02:09:58;;;;;;;5.38;3.50;;;;;;;10.02;51.41;100627.78;5071650;28;20037;-67
2023/03/17 02:12:26;;;;;;;8.32;4.50;;;;;;;10.02;51.20;100626.94;5071651;28;20453;-67
2023/03/17 02:14:52;;;;;;;5.53;4.03;;;;;;;10.01;51.24;100623.31;5073290;28;20116;-67
2023/03/17 02:17:20;;;;;;;5.18;3.60;;;;;;;10.00;51.58;100613.31;5073390;28;20103;-66
2023/03/17 02:19:45;;;;;;;7.10;4.00;;;;;;;9.98;51.05;100622.97;5064270;28;20028;-67
2023/03/17 02:22:10;;;;;;;9.82;4.28;;;;;;;9.95;50.63;100616.03;5070813;28;20086;-66
2023/03/17 02:24:44;;;;;;;9.27;4.30;;;;;;;9.93;50.81;100614.59;5070327;28;20037;-66
2023/03/17 02:27:18;;;;;;;7.85;3.90;;;;;;;9.95;50.86;100618.81;5074146;28;20035;-66
2023/03/17 02:29:45;;;;;;;10.52;4.10;;;;;;;10.02;50.43;100613.06;5074251;28;20097;-66
2023/03/17 02:32:11;;;;;;;5.68;4.03;;;;;;;10.03;50.28;100604.50;5063034;28;20028;-67
2023/03/17 02:34:37;;;;;;;8.90;4.30;;;;;;;10.02;50.73;100613.06;5072648;28;20149;-67
2023/03/17 02:37:02;;;;;;;8.73;4.68;;;;;;;10.03;50.65;100606.44;5072735;28;20036;-67
2023/03/17 02:39:27;;;;;;;7.60;4.25;;;;;;;10.06;50.45;100601.22;5068547;28;20484;-67
2023/03/17 02:41:53;;;;;;;6.18;4.20;;;;;;;10.06;50.50;100595.69;5073390;28;20032;-67
2023/03/17 02:44:18;;;;;;;7.82;4.00;;;;;;;10.07;50.15;100591.81;5072494;28;20095;-67
2023/03/17 02:46:44;;;;;;;8.02;3.97;;;;;;;10.09;50.20;100591.53;5072748;28;20036;-66
2023/03/17 02:49:10;;;;;;;7.28;4.20;;;;;;;10.08;49.83;100590.69;5065944;28;20028;-66
2023/03/17 02:51:37;;;;;;;7.15;3.75;;;;;;;10.07;50.24;100583.47;5073168;28;20475;-67
2023/03/17 02:54:05;;;;;;;8.88;4.07;;;;;;;10.06;50.30;100589.25;5061698;28;20029;-66
2023/03/17 02:56:31;;;;;;;7.72;3.80;;;;;;;10.07;50.39;100590.97;5053108;28;20420;-67
2023/03/17 02:58:56;;;;;;;8.23;4.22;;;;;;;9.99;50.95;100586.69;5061995;28;20017;-67
2023/03/17 03:01:22;;;;;;;7.75;4.03;;;;;;;10.03;50.12;100596.19;5070675;28;20574;-67
2023/03/17 03:03:47;;;;;;;6.60;4.15;;;;;;;10.03;50.51;100590.63;5070655;28;20058;-66
2023/03/17 03:06:13;;;;;;;7.63;4.32;;;;;;;9.99;50.31;100597.78;5062955;28;20476;-67
2023/03/17 03:08:38;;;;;;;6.70;3.60;;;;;;;10.04;49.95;100603.41;5064330;28;20052;-67
2023/03/17 03:11:04;;;;;;;7.38;3.83;;;;;;;10.04;50.01;100599.78;5052514;28;20051;-66
2023/03/17 03:13:30;;;;;;;7.80;3.60;;;;;;;10.03;50.58;100590.63;5064516;28;20441;-67
2023/03/17 03:15:55;;;;;;;6.13;3.50;;;;;;;10.05;49.76;100582.88;5073102;28;20029;-66
2023/03/17 03:18:21;;;;;;;7.18;3.40;;;;;;;10.07;50.09;100582.66;5060343;28;20506;-67
2023/03/17 03:20:46;;;;;;;7.68;3.45;;;;;;;10.07;49.38;100588.19;5071280;28;20043;-67
2023/03/17 03:23:13;;;;;;;6.03;3.20;;;;;;;10.08;49.84;100589.88;5071319;28;20496;-67
2023/03/17 03:25:38;;;;;;;5.57;3.03;;;;;;;10.08;49.59;100607.34;5071273;28;20058;-67
2023/03/17 03:28:05;;;;;;;4.97;3.40;;;;;;;10.05;49.23;100605.06;5072517;28;20108;-67
2023/03/17 03:30:34;;;;;;;5.78;3.33;;;;;;;10.05;49.32;100598.69;5072192;28;20537;-67
2023/03/17 03:33:00;;;;;;;7.20;3.08;;;;;;;10.04;49.66;100592.31;5072714;28;20032;-66
2023/03/17 03:35:25;;;;;;;7.05;3.35;;;;;;;10.03;49.46;100587.03;5069855;28;20039;-67
2023/03/17 03:37:50;;;;;;;6.32;3.30;;;;;;;10.07;49.13;100589.03;5071251;28;20032;-67
2023/03/17 03:40:18;;;;;;;6.43;3.13;;;;;;;10.01;49.51;100603.06;5069313;28;20139;-67
2023/03/17 03:42:44;;;;;;;5.88;3.50;;;;;;;10.00;49.61;100610.56;5069168;28;20111;-66
2023/03/17 03:45:10;;;;;;;5.97;3.28;;;;;;;10.02;49.23;100610.28;5071797;28;20101;-67
2023/03/17 03:47:35;;;;;;;6.18;3.22;;;;;;;10.03;49.12;100607.28;5071914;28;20025;-67
2023/03/17 03:50:00;;;;;;;8.27;3.63;;;;;;;10.03;49.21;100621.16;5063771;28;20049;-67
2023/03/17 03:52:26;;;;;;;7.53;3.40;;;;;;;10.05;49.26;100613.38;5068558;28;20040;-67
2023/03/17 03:54:51;;;;;;;8.32;3.80;;;;;;;9.99;49.31;100603.34;5071857;28;20028;-67
2023/03/17 03:57:16;;;;;;;7.15;3.33;;;;;;;10.01;49.49;100617.78;5065901;28;20029;-67
2023/03/17 03:59:41;;;;;;;8.18;3.33;;;;;;;9.97;49.48;100622.16;5066094;28;20024;-66
2023/03/17 04:02:07;;;;;;;9.85;3.95;;;;;;;9.98;49.18;100628.53;5056933;28;20024;-67
2023/03/17 04:04:33;;;;;;;6.88;3.83;;;;;;;9.95;49.73;100629.91;5071039;28;20032;-67
2023/03/17 04:06:58;;;;;;;9.93;3.38;;;;;;;9.95;49.65;100623.53;5069531;28;20395;-67
2023/03/17 04:09:24;;;;;;;5.63;3.15;;;;;;;9.96;49.69;100623.25;5070921;28;20123;-65
2023/03/17 04:11:49;;;;;;;8.35;3.80;;;;;;;9.93;49.61;100620.16;5068660;28;21453;-67
2023/03/17 04:14:15;;;;;;;6.55;3.47;;;;;;;9.92;49.45;100626.78;5070278;28;20085;-67
2023/03/17 04:16:40;;;;;;;10.15;3.97;;;;;;;9.90;49.52;100621.47;5067588;28;20063;-67
2023/03/17 04:19:05;;;;;;;12.45;3.75;;;;;;;9.93;49.52;100623.75;5059470;28;20055;-67
2023/03/17 04:21:31;;;;;;;9.43;3.80;;;;;;;9.92;49.59;100619.31;5069304;28;20109;-67
2023/03/17 04:23:56;;;;;;;8.48;3.80;;;;;;;9.90;49.80;100620.66;5065440;28;20550;-67
2023/03/17 04:26:22;;;;;;;9.77;3.67;;;;;;;9.89;49.88;100622.59;5067792;28;20028;-67
2023/03/17 04:28:48;;;;;;;11.57;4.15;;;;;;;9.88;50.07;100622.84;5069145;28;20521;-67
2023/03/17 04:31:14;;;;;;;10.65;4.20;;;;;;;9.86;50.06;100625.84;5071264;28;20495;-67
2023/03/17 04:33:39;;;;;;;7.95;4.43;;;;;;;9.90;50.11;100621.47;5054701;28;20537;-67
2023/03/17 04:36:06;;;;;;;12.48;4.57;;;;;;;9.84;50.08;100616.97;5061779;28;20055;-67
2023/03/17 04:38:32;;;;;;;11.18;4.00;;;;;;;9.83;49.88;100618.91;5057063;28;20032;-67
2023/03/17 04:40:57;;;;;;;11.13;4.20;;;;;;;9.88;50.20;100625.63;5061955;28;20033;-68
2023/03/17 04:43:23;;;;;;;9.65;4.05;;;;;;;9.83;50.27;100634.72;5091488;28;20081;-68
2023/03/17 04:45:48;;;;;;;8.77;3.92;;;;;;;9.81;50.13;100634.09;5057376;28;20032;-67
2023/03/17 04:48:13;;;;;;;8.93;4.40;;;;;;;9.79;50.30;100630.75;5070298;28;20039;-67
2023/03/17 04:50:39;;;;;;;11.88;4.38;;;;;;;9.80;49.57;100627.72;5069278;28;20422;-67
2023/03/17 04:53:05;;;;;;;9.23;4.10;;;;;;;9.75;49.90;100624.06;5071064;28;20054;-67
2023/03/17 04:55:30;;;;;;;12.13;4.07;;;;;;;9.78;50.28;100623.53;5060164;28;20016;-67
2023/03/17 04:57:56;;;;;;;10.65;3.90;;;;;;;9.74;50.64;100623.19;5058751;28;20068;-67
2023/03/17 05:00:21;;;;;;;10.73;4.00;;;;;;;9.76;50.27;100620.19;5052073;28;20133;-67
2023/03/17 05:02:47;;;;;;;11.90;4.32;;;;;;;9.72;51.03;100613.47;5056137;28;20029;-68
2023/03/17 05:05:12;;;;;;;13.20;4.07;;;;;;;9.69;50.49;100612.03;5068817;28;20040;-67
2023/03/17 05:07:37;;;;;;;10.02;4.15;;;;;;;9.69;51.21;100608.41;5068638;28;20138;-67
2023/03/17 05:10:04;;;;;;;7.20;3.63;;;;;;;9.71;50.45;100606.25;5052622;28;20506;-67
2023/03/17 05:12:29;;;;;;;9.77;3.80;;;;;;;9.74;50.45;100598.22;5066238;28;20032;-67
2023/03/17 05:14:55;;;;;;;11.93;4.03;;;;;;;9.76;50.34;100598.00;5060461;28;20033;-67
2023/03/17 05:17:20;;;;;;;10.55;4.10;;;;;;;9.79;50.55;100594.72;5068410;28;20025;-67
2023/03/17 05:19:46;;;;;;;9.88;3.92;;;;;;;9.76;50.91;100598.84;5062888;28;20028;-67
2023/03/17 05:22:11;;;;;;;8.30;4.10;;;;;;;9.81;50.49;100607.22;5065803;28;20080;-67
2023/03/17 05:24:36;;;;;;;8.35;3.80;;;;;;;9.81;50.34;100603.63;5069580;28;20029;-67
2023/03/17 05:27:02;;;;;;;8.88;4.35;;;;;;;9.82;50.33;100610.81;5058979;28;20033;-67
2023/03/17 05:29:27;;;;;;;12.02;4.05;;;;;;;9.79;50.67;100620.50;5051850;28;20043;-68
2023/03/17 05:31:52;;;;;;;8.48;3.97;;;;;;;9.74;50.76;100614.88;5063059;28;20032;-68
2023/03/17 05:34:18;;;;;;;9.50;3.95;;;;;;;9.74;50.80;100620.41;5068851;28;20038;-67
2023/03/17 05:36:43;;;;;;;11.10;4.28;;;;;;;9.72;51.04;100619.00;5069560;28;20031;-67
2023/03/17 05:39:09;;;;;;;12.27;4.38;;;;;;;9.74;50.72;100627.88;5067404;28;20115;-68
2023/03/17 05:41:35;;;;;;;11.93;4.05;;;;;;;9.73;50.64;100631.75;5066734;28;20064;-67
2023/03/17 05:44:00;;;;;;;8.45;3.88;;;;;;;9.76;50.78;100625.72;5067431;28;20073;-67
2023/03/17 05:46:26;;;;;;;12.77;3.78;;;;;;;9.72;50.60;100619.84;5069583;28;20043;-67
2023/03/17 05:48:51;;;;;;;7.80;3.33;;;;;;;9.72;51.10;100610.69;5068800;28;20048;-67
2023/03/17 05:51:16;;;;;;;8.43;3.80;;;;;;;9.70;50.81;100610.09;5069237;28;20314;-67
2023/03/17 05:53:44;;;;;;;12.80;3.60;;;;;;;9.68;51.08;100613.13;5068135;28;20032;-67
2023/03/17 05:56:10;;;;;;;7.72;3.08;;;;;;;9.71;51.02;100617.34;5070004;28;20029;-67
2023/03/17 05:58:35;;;;;;;7.57;4.00;;;;;;;9.70;50.92;100615.63;5066280;28;20097;-67
2023/03/17 06:01:00;;;;;;;9.07;3.60;;;;;;;9.68;51.00;100609.53;5064294;28;20159;-67
2023/03/17 06:03:26;;;;;;;7.65;3.50;;;;;;;9.73;51.14;100606.81;5059185;28;20036;-68
2023/03/17 06:05:52;;;;;;;8.77;3.60;;;;;;;9.74;51.28;100602.94;5065243;28;20029;-67
2023/03/17 06:08:18;;;;;;;8.50;3.25;;;;;;;9.71;51.07;100611.78;5068958;28;20497;-67
2023/03/17 06:10:43;;;;;;;8.27;3.50;;;;;;;9.71;50.84;100611.78;5069932;28;20040;-67
2023/03/17 06:13:09;;;;;;;9.10;3.72;;;;;;;9.71;50.86;100606.25;5067391;28;20051;-67
2023/03/17 06:15:35;;;;;;;7.40;3.50;;;;;;;9.68;51.21;100615.91;5067981;28;20036;-67
2023/03/17 06:18:01;;;;;;;8.68;3.75;;;;;;;9.65;51.24;100615.56;5056654;28;20033;-67
2023/03/17 06:20:26;;;;;;;6.68;3.35;;;;;;;9.66;51.57;100618.06;5065344;28;20047;-68
2023/03/17 06:22:52;;;;;;;8.98;3.75;;;;;;;9.63;51.35;100612.19;5066871;28;20028;-67
2023/03/17 06:25:17;;;;;;;7.88;3.78;;;;;;;9.66;51.88;100620.84;5065548;28;20391;-67
2023/03/17 06:27:43;;;;;;;10.52;3.38;;;;;;;9.65;51.58;100619.16;5069657;28;20143;-67
2023/03/17 06:30:10;;;;;;;9.57;3.75;;;;;;;9.62;51.56;100616.91;5063383;28;20025;-66
2023/03/17 06:32:35;;;;;;;9.90;3.53;;;;;;;9.68;51.42;100624.22;5057320;28;20048;-67
2023/03/17 06:35:01;;;;;;;9.30;3.83;;;;;;;9.72;51.37;100627.31;5061477;28;20146;-67
2023/03/17 06:37:29;;;;;;;8.60;4.00;;;;;;;9.71;51.64;100628.41;5065422;28;20519;-67
2023/03/17 06:39:56;;;;;;;9.63;3.60;;;;;;;9.67;51.53;100624.44;5064744;28;20037;-67
2023/03/17 06:42:21;;;;;;;9.57;4.18;;;;;;;9.68;51.90;100613.13;5063304;28;20455;-66
2023/03/17 06:44:51;;;;;;;4.88;3.45;;;;;;;9.69;51.86;100617.56;5065483;28;20051;-67
2023/03/17 06:47:17;;;;;;;7.20;3.67;;;;;;;9.68;51.29;100613.13;5064107;28;20568;-67
2023/03/17 06:49:42;;;;;;;10.05;3.85;;;;;;;9.65;51.49;100618.34;5057027;28;20071;-66
2023/03/17 06:52:08;;;;;;;8.25;3.30;;;;;;;9.68;52.06;100615.91;5059091;28;20065;-67
2023/03/17 06:54:35;;;;;;;9.50;3.30;;;;;;;9.67;52.04;100621.66;5068408;28;20029;-67
2023/03/17 06:57:00;;;;;;;6.65;3.50;;;;;;;9.72;51.43;100619.84;5061066;28;20028;-67
2023/03/17 06:59:26;;;;;;;10.35;3.70;;;;;;;9.71;52.44;100626.47;5064294;28;20051;-67
2023/03/17 07:01:51;;;;;;;8.85;3.60;;;;;;;9.76;51.94;100620.19;5058498;28;20376;-67
2023/03/17 07:04:17;;;;;;;8.77;3.60;;;;;;;9.78;52.08;100629.91;5064920;28;20112;-66
2023/03/17 07:06:43;;;;;;;8.57;3.20;;;;;;;9.79;51.75;100622.44;5068811;28;20479;-68
2023/03/17 07:09:09;;;;;;;8.82;3.60;;;;;;;9.81;51.73;100623.03;5062181;28;20040;-67
2023/03/17 07:11:34;;;;;;;9.73;3.47;;;;;;;9.83;51.83;100620.84;5062539;28;20540;-68
2023/03/17 07:14:00;;;;;;;8.02;3.63;;;;;;;9.84;51.89;100626.13;5059035;28;20043;-67
2023/03/17 07:16:26;;;;;;;8.75;3.47;;;;;;;9.88;51.71;100618.13;5068602;28;20020;-66
2023/03/17 07:18:52;;;;;;;10.77;3.97;;;;;;;9.88;51.98;100626.47;5061314;28;20119;-66
2023/03/17 07:21:17;;;;;;;5.65;3.40;;;;;;;9.87;52.06;100627.56;5060515;28;20115;-66
2023/03/17 07:23:43;;;;;;;8.18;3.50;;;;;;;9.93;51.93;100634.00;5063587;28;20510;-66
2023/03/17 07:26:23;;;;;;;13.13;4.13;;;;;;;9.96;51.90;100628.78;5072320;28;20028;-66
2023/03/17 07:28:48;;;;;;;7.03;3.92;;;;;;;9.97;51.84;100621.31;5059966;28;20443;-67
2023/03/17 07:31:14;;;;;;;7.38;3.78;;;;;;;10.01;52.03;100617.78;5064013;28;20060;-67
2023/03/17 07:33:40;;;;;;;10.82;3.75;;;;;;;10.34;55.05;100613.28;5062639;28;20043;-67
2023/03/17 07:36:06;;;;;;;10.95;3.90;;;;;;;10.28;51.96;100605.97;5060392;28;20033;-68
2023/03/17 07:38:32;;;;;;;11.77;4.07;;;;;;;10.27;51.48;100604.31;5061481;28;20037;-68
2023/03/17 07:40:58;;;;;;;8.00;3.58;;;;;;;10.21;51.75;100610.84;5059997;28;20036;-69
2023/03/17 07:43:24;;;;;;;6.93;3.53;;;;;;;10.24;51.71;100604.78;5063127;28;20033;-67
2023/03/17 07:45:50;;;;;;;9.70;3.88;;;;;;;10.23;52.18;100605.88;5055999;28;20040;-66
2023/03/17 07:48:15;;;;;;;9.77;3.40;;;;;;;10.25;52.02;100599.00;5054688;28;20025;-68
2023/03/17 07:50:41;;;;;;;6.47;3.28;;;;;;;10.26;52.25;100605.41;5058811;28;20056;-67
2023/03/17 07:53:06;;;;;;;9.73;3.80;;;;;;;10.25;51.54;100621.19;5055078;28;20028;-67
2023/03/17 07:55:32;;;;;;;8.77;3.80;;;;;;;10.23;52.14;100611.44;5059385;28;20025;-67
2023/03/17 07:57:58;;;;;;;7.82;3.50;;;;;;;10.25;51.86;100604.53;5061033;28;20024;-68
2023/03/17 08:00:25;;;;;;;7.88;3.83;;;;;;;10.29;51.87;100621.50;5059654;28;20362;-68
2023/03/17 08:02:50;;;;;;;6.45;3.60;;;;;;;10.31;51.41;100630.44;5060542;28;20049;-68
2023/03/17 08:05:16;;;;;;;12.50;4.03;;;;;;;10.34;51.77;100627.16;5055628;28;20036;-67
2023/03/17 08:07:42;;;;;;;6.00;3.47;;;;;;;10.32;51.58;100630.16;5066829;28;20452;-67
2023/03/17 08:10:11;;;;;;;11.07;3.55;;;;;;;10.36;51.97;100613.00;5064515;28;20039;-70
2023/03/17 08:12:37;;;;;;;7.50;3.88;;;;;;;10.39;51.74;100612.50;5069738;28;20103;-69
2023/03/17 08:15:02;;;;;;;6.93;3.92;;;;;;;10.42;51.78;100612.81;5067671;28;20024;-71
2023/03/17 08:17:28;;;;;;;7.85;3.95;;;;;;;10.46;51.44;100622.31;5070006;28;20097;-67
2023/03/17 08:19:53;;;;;;;5.25;3.70;;;;;;;10.51;51.43;100622.38;5061839;28;20036;-71
2023/03/17 08:22:19;;;;;;;10.50;3.90;;;;;;;10.50;51.67;100626.25;5075438;28;20475;-67
2023/03/17 08:24:45;;;;;;;5.85;3.70;;;;;;;10.54;51.14;100621.84;5072731;28;20028;-68
2023/03/17 08:27:10;;;;;;;8.93;3.65;;;;;;;10.58;51.53;100624.97;5056861;28;20094;-69
2023/03/17 08:29:36;;;;;;;5.85;3.30;;;;;;;10.62;51.40;100617.78;5067842;28;20483;-67
2023/03/17 08:32:02;;;;;;;7.68;3.83;;;;;;;10.71;51.47;100615.38;5060846;28;20032;-68
2023/03/17 08:34:30;;;;;;;8.63;3.90;;;;;;;10.74;51.61;100615.72;5071587;28;20043;-67
2023/03/17 08:36:56;;;;;;;7.65;4.00;;;;;;;10.79;51.32;100612.16;5062364;28;20028;-67
2023/03/17 08:39:21;;;;;;;8.65;4.20;;;;;;;10.84;51.49;100605.81;5065032;28;20032;-69
2023/03/17 08:41:46;;;;;;;9.65;3.67;;;;;;;10.86;51.19;100604.47;5066745;28;20024;-67
2023/03/17 08:44:13;;;;;;;8.55;3.58;;;;;;;10.88;50.96;100596.69;5067316;28;20053;-67
2023/03/17 08:46:39;;;;;;;4.60;3.20;;;;;;;10.89;51.35;100584.50;5057089;28;20375;-68
2023/03/17 08:49:06;;;;;;;6.38;4.30;;;;;;;10.92;51.31;100603.38;5057814;28;20406;-67
2023/03/17 08:51:34;;;;;;;9.30;3.50;;;;;;;10.97;51.45;100609.03;5062111;28;20771;-63
2023/03/17 08:54:04;;;;;;;6.47;3.63;;;;;;;11.00;51.56;100610.41;5063120;28;20021;-68
2023/03/17 08:56:33;;;;;;;7.05;3.38;;;;;;;11.06;51.51;100626.03;5058758;28;20119;-69
2023/03/17 08:59:01;;;;;;;5.68;3.78;;;;;;;11.09;51.73;100624.69;5061275;28;20482;-69
2023/03/17 09:01:27;;;;;;;7.20;3.97;;;;;;;11.13;51.49;100611.97;5065346;28;20024;-69
2023/03/17 09:03:53;;;;;;;6.68;3.35;;;;;;;11.18;51.17;100603.66;5052564;28;20120;-68
2023/03/17 09:06:20;;;;;;;9.43;3.95;;;;;;;11.20;52.09;100605.09;5058337;28;20064;-68
2023/03/17 09:08:46;;;;;;;5.70;3.35;;;;;;;11.27;51.80;100596.50;5057651;28;20040;-68
2023/03/17 09:11:15;;;;;;;11.25;3.90;;;;;;;11.27;51.70;100602.91;5049628;28;20400;-69
2023/03/17 09:13:40;;;;;;;5.90;3.55;;;;;;;11.31;51.93;100595.72;5054191;28;20032;-69
2023/03/17 09:16:07;;;;;;;4.07;3.45;;;;;;;11.34;52.31;100597.13;5068505;28;20028;-69
2023/03/17 09:18:33;;;;;;;6.10;3.47;;;;;;;11.37;51.56;100609.69;5068568;28;20507;-68
2023/03/17 09:21:02;;;;;;;7.95;3.92;;;;;;;11.37;51.82;100598.56;5066699;28;20041;-68
2023/03/17 09:23:27;;;;;;;7.10;3.60;;;;;;;11.40;52.22;100601.66;5060393;28;20031;-69
2023/03/17 09:25:56;;;;;;;7.82;4.00;;;;;;;11.45;52.07;100598.06;5057081;28;20037;-69
2023/03/17 09:28:22;;;;;;;5.72;4.03;;;;;;;11.50;52.02;100612.84;5058565;28;20055;-69
2023/03/17 09:30:48;;;;;;;7.10;3.92;;;;;;;11.54;51.88;100604.81;5053465;28;20043;-69
2023/03/17 09:33:14;;;;;;;7.47;3.78;;;;;;;11.56;52.03;100599.84;5055183;28;20033;-69
2023/03/17 09:35:40;;;;;;;6.70;3.65;;;;;;;11.59;52.38;100590.09;5060633;28;20167;-69
2023/03/17 09:38:06;;;;;;;8.02;3.42;;;;;;;11.61;52.17;100585.13;5050024;28;20145;-69
2023/03/17 09:40:42;;;;;;;7.68;4.13;;;;;;;11.65;51.95;100577.94;5050118;28;20079;-69
2023/03/17 09:43:13;;;;;;;4.93;3.33;;;;;;;11.66;52.08;100585.16;5050128;28;20067;-69
2023/03/17 09:45:40;;;;;;;7.57;3.42;;;;;;;11.68;52.24;100581.03;5056589;28;20029;-69
2023/03/17 09:48:35;;;;;;;7.07;4.00;;;;;;;11.71;52.37;100579.63;5068425;28;20025;-69
2023/03/17 09:51:09;;;;;;;9.50;4.18;;;;;;;11.75;52.42;100589.97;5059000;28;20458;-69
2023/03/17 09:53:55;;;;;;;9.43;3.80;;;;;;;11.78;52.64;100586.63;5061252;28;20028;-69
2023/03/17 09:56:23;;;;;;;5.88;3.70;;;;;;;11.83;52.67;100594.22;5066733;28;20059;-69
2023/03/17 09:59:17;;;;;;;6.68;3.78;;;;;;;11.87;52.62;100600.06;5056185;28;20098;-69
2023/03/17 10:01:42;;;;;;;8.00;3.70;;;;;;;11.87;52.19;100605.63;5048842;28;20028;-69
2023/03/17 10:04:09;;;;;;;5.60;3.72;;;;;;;11.88;52.64;100613.72;5063477;28;20035;-69
2023/03/17 10:06:45;;;;;;;8.43;3.80;;;;;;;11.89;52.83;100604.25;5069504;28;20032;-69
2023/03/17 10:09:22;;;;;;;5.57;3.55;;;;;;;11.90;52.72;100605.94;5069430;28;20061;-69
2023/03/17 10:12:00;;;;;;;6.18;3.40;;;;;;;11.92;52.82;100605.69;5069623;28;20551;-69
2023/03/17 10:14:49;;;;;;;5.60;3.30;;;;;;;11.93;53.76;100610.97;5071829;28;20090;-68
2023/03/17 10:17:19;;;;;;;9.82;3.75;;;;;;;11.95;54.07;100631.03;5071239;28;20020;-68
2023/03/17 10:20:01;;;;;;;6.75;3.70;;;;;;;11.97;54.12;100650.22;5068318;28;20036;-69
2023/03/17 10:22:45;;;;;;;5.45;3.25;;;;;;;11.99;54.02;100631.31;5053609;28;20075;-69
2023/03/17 10:25:23;;;;;;;6.15;3.38;;;;;;;12.03;54.04;100630.50;5054128;28;20035;-69
2023/03/17 10:27:58;;;;;;;6.53;3.40;;;;;;;12.08;54.78;100651.97;5056029;28;20021;-68
2023/03/17 10:30:24;;;;;;;7.57;3.95;;;;;;;12.14;54.26;100636.13;5066285;28;20451;-70
2023/03/17 10:32:51;;;;;;;9.98;4.03;;;;;;;12.18;54.43;100642.81;5065816;28;20040;-68
2023/03/17 10:35:17;;;;;;;7.95;4.10;;;;;;;12.26;54.29;100640.41;5069974;28;20040;-69
2023/03/17 10:37:45;;;;;;;6.80;3.83;;;;;;;12.27;54.76;100633.72;5066072;28;20029;-69
2023/03/17 10:40:27;;;;;;;5.63;3.42;;;;;;;12.32;54.05;100627.34;5064778;28;20047;-69
2023/03/17 10:43:19;;;;;;;6.93;3.85;;;;;;;12.40;54.93;100626.81;5062426;28;20032;-69
2023/03/17 10:45:59;;;;;;;5.47;3.60;;;;;;;12.56;55.20;100629.69;5050096;28;20080;-69
2023/03/17 10:48:25;;;;;;;7.47;3.60;;;;;;;12.68;54.64;100622.75;5059673;28;20029;-71
2023/03/17 10:50:51;;;;;;;6.93;3.30;;;;;;;12.83;55.59;100623.94;5067935;28;20060;-70
2023/03/17 10:53:26;;;;;;;4.60;3.13;;;;;;;12.95;54.68;100630.94;5062537;28;20054;-71
2023/03/17 10:55:55;;;;;;;6.45;3.28;;;;;;;13.13;54.96;100625.97;5061740;28;20074;-65
2023/03/17 10:58:29;;;;;;;5.60;3.15;;;;;;;13.24;53.98;100624.88;5062451;28;20083;-67
2023/03/17 11:01:04;;;;;;;5.78;3.30;;;;;;;13.26;53.66;100617.09;5066031;28;20401;-74
2023/03/17 11:03:34;;;;;;;5.45;3.10;;;;;;;13.29;54.32;100619.34;5060158;28;21092;-71
2023/03/17 11:06:08;;;;;;;5.30;3.67;;;;;;;13.32;53.65;100613.19;5060789;28;20028;-69
2023/03/17 11:08:41;;;;;;;5.30;3.50;;;;;;;13.34;54.06;100605.38;5062230;28;20024;-71
2023/03/17 11:11:20;;;;;;;6.50;3.83;;;;;;;13.40;53.65;100606.22;5068439;28;20071;-68
2023/03/17 11:13:47;;;;;;;7.85;4.05;;;;;;;13.53;54.08;100616.00;5064272;28;20456;-67
2023/03/17 11:16:23;;;;;;;5.50;3.83;;;;;;;13.62;53.59;100609.56;5068950;28;20104;-69
2023/03/17 11:18:56;;;;;;;6.15;3.83;;;;;;;13.77;54.46;100593.97;5059136;28;20378;-70
2023/03/17 11:21:24;;;;;;;6.05;4.13;;;;;;;13.83;53.61;100598.41;5062829;28;20032;-69
2023/03/17 11:23:55;;;;;;;6.18;4.00;;;;;;;13.87;53.12;100592.00;5064921;28;20044;-68
2023/03/17 11:26:45;;;;;;;7.53;3.92;;;;;;;13.94;53.33;100600.88;5067705;28;20451;-69
2023/03/17 11:29:29;;;;;;;7.38;3.70;;;;;;;14.02;53.31;100595.84;5062589;28;20029;-70